Sawyer International Airport
KSAW : now visible

Airfield :











YOU CAN JOIN US ON...

 
LOGIN :

Register | Disclaimer

   EN    FR    IT 

 









Legend :    VFR   Marginal VFR   IFR   Intensive IFR   Very Intensive IFR
Visi :
Ceiling :
>= 8 km
>= 3000ft
5 to 8 km
1000 to 3000 ft
1500m to 5 km
500 to 1000 ft
800 to 1500m
200 to 500 ft
< 800m
< 200 ft
Symbols :   Thunderstorms  Fog  Heavy snow  Heavy precipitations  Wind > 20 kt






- Airport Elevation : 1221 ft


KSAW - Sawyer International

CURRENT METAR :
  • 262347Z 26009KT 5SM RA SCT025 BKN045 OVC095 19/17 A2997 RMK LTG DSNT ALQS

EXPIRED METARs :
  • 262245Z 29008G22KT 10SM SCT032 BKN042 OVC080 21/18 A2993 RMK LTG DSNT SW THRU N
  • 262147Z 17019G25KT 10SM SCT060 29/16 A2990 RMK LTG DSNT N AND W

TAF KSAW
Valid from the 27 at 00:00 until the 28 at 00:00 UTC


262332Z 2700/2724 18009KT P6SM BKN060
TEMPO 2700/2702 5SM TSRA BKN035CB
FM270500 19008KT P6SM BKN120 WS020/21035KT
FM271500 20013KT P6SM BKN080
FM272200 17006KT P6SM BKN045
KZMP FIR / North America



MET'MAP, your aeronautical weather chart ! - Copyright ORBIFLY December 2007 - Disclaimer

ORBIFLY MET'MAP TEAM :

Programming & Development : Alexandra Zaïnal
Concept & original design : Baudouin d'Aumeries
Assistance for programming : Marc-Olivier Méhu
Technical & hardware support : Manuel Goepfert

Contact : metmap@orbifly.com




SOURCES & CREDITS :

   NOAA       Earth
Advisory